Terminal Aerodrome Forecast
Issued by NWS

Home | Current Version | Previous Version | Text Only | Print | Product List | Glossary On
Versions: 1 2 3 4 5 6 7 8 9 10 11 12 13 14 15 16 17 18 19 20 21 22 23
000
FTUS46 KLOX 300558
TAFLGB
TAF
KLGB 300558Z 3006/0106 28005KT P6SM FEW015 SCT250
     FM300630 VRB05KT P6SM OVC019
     FM300800 15006KT P6SM OVC024
     FM301200 15008KT 6SM -DZ BR BKN014 OVC029
     FM301600 20012KT P6SM BKN035
     FM301900 20012G18KT P6SM FEW035 SCT060
     FM010100 29008KT P6SM FEW015 SCT060=

USA.gov is the U.S. government's official web portal to all federal, state and local government web resources and services.